Strona główna
METAR-TAF:

METAR-TAF

Lotnisko :

Port lotniczy Namsos

Namsos, Norwegia

Szerokość geograficzna: 64-28N, Długość geograficzna: 011-35E, wysokość: 0 m

Aktualna obserwacja pogody

Raport powstał 11 godziny i 17 minut temu, godzina 08:50 UTC
Wiatr 9 kt od wschodnio-północny wschód
Temperatura 12°C
Wilgotność 82%
Ciśnienie 1035 hPa
Widzialność 10 km lub więcej
Mało chmury na wysokości 800 ft
Rozproszone chmury na wysokości 4500 ft

METAR: ENNM 300850Z 07009KT 9999 FEW008 SCT045 12/09 Q1035

czas: 22:07 (20:07 UTC)


TAF: brakujący

Obserwacja i prognoza pogody dla ponad 4000 lotnisk (raport METAR i TAF).

Dostępne stacje oznaczono żółtymi i czerwonymi punktami na mapie.

Najedź kursorem aby zobaczyć nazwę stacji.

Kliknij aby zobaczyć obserwacje i prognozy pogody.

Aby zmienić mapę: kliknij na zielony przycisk z czarnym krzyżykiem, aby powiększyć; na zielony przycisk z myślnikiem, aby pomniejszyć; na zielone strzałki, aby przejść do map sąsiednich.


METAR-TAF: